sensor_id;sensor_type;location;lat;lon;timestamp;pressure;altitude;pressure_sealevel;temperature;humidity
2178;BME280;1095;50.992;6.798;2023-10-08T00:00:28;101512.63;;;18.75;80.75
2178;BME280;1095;50.992;6.798;2023-10-08T00:03:13;101512.91;;;18.80;80.29
2178;BME280;1095;50.992;6.798;2023-10-08T00:05:43;101511.81;;;18.75;80.60
2178;BME280;1095;50.992;6.798;2023-10-08T00:08:12;101522.22;;;18.76;80.95
2178;BME280;1095;50.992;6.798;2023-10-08T00:10:53;101515.22;;;18.54;81.35
2178;BME280;1095;50.992;6.798;2023-10-08T00:13:34;101515.78;;;18.49;81.28
2178;BME280;1095;50.992;6.798;2023-10-08T00:16:09;101530.75;;;18.57;81.35
2178;BME280;1095;50.992;6.798;2023-10-08T00:18:37;101537.44;;;18.53;81.34
2178;BME280;1095;50.992;6.798;2023-10-08T00:21:06;101536.53;;;18.46;81.76
2178;BME280;1095;50.992;6.798;2023-10-08T00:23:43;101531.41;;;18.44;81.82
2178;BME280;1095;50.992;6.798;2023-10-08T00:26:17;101543.41;;;18.40;81.86
2178;BME280;1095;50.992;6.798;2023-10-08T00:28:53;101525.88;;;18.39;81.67
2178;BME280;1095;50.992;6.798;2023-10-08T00:31:21;101544.88;;;18.43;81.50
2178;BME280;1095;50.992;6.798;2023-10-08T00:33:51;101541.78;;;18.39;81.61
2178;BME280;1095;50.992;6.798;2023-10-08T00:36:18;101543.00;;;18.43;81.62
2178;BME280;1095;50.992;6.798;2023-10-08T00:38:47;101545.88;;;18.42;81.77
2178;BME280;1095;50.992;6.798;2023-10-08T00:41:16;101545.59;;;18.37;81.92
2178;BME280;1095;50.992;6.798;2023-10-08T00:43:47;101553.84;;;18.27;82.15
2178;BME280;1095;50.992;6.798;2023-10-08T00:46:15;101546.97;;;18.33;81.88
2178;BME280;1095;50.992;6.798;2023-10-08T00:48:49;101539.66;;;18.35;81.68
2178;BME280;1095;50.992;6.798;2023-10-08T00:51:18;101540.50;;;18.35;81.62
2178;BME280;1095;50.992;6.798;2023-10-08T00:53:55;101541.41;;;18.28;81.99
2178;BME280;1095;50.992;6.798;2023-10-08T00:58:52;101512.47;;;18.11;81.90
2178;BME280;1095;50.992;6.798;2023-10-08T01:01:19;101513.09;;;18.13;81.70
2178;BME280;1095;50.992;6.798;2023-10-08T01:03:46;101521.88;;;18.14;81.81
2178;BME280;1095;50.992;6.798;2023-10-08T01:06:16;101528.44;;;18.18;81.91
2178;BME280;1095;50.992;6.798;2023-10-08T01:09:01;101549.00;;;18.16;81.90
2178;BME280;1095;50.992;6.798;2023-10-08T01:11:42;101549.25;;;18.06;82.24
2178;BME280;1095;50.992;6.798;2023-10-08T01:14:14;101544.06;;;17.98;82.51
2178;BME280;1095;50.992;6.798;2023-10-08T01:16:42;101533.75;;;17.88;82.71
2178;BME280;1095;50.992;6.798;2023-10-08T01:19:17;101535.22;;;17.91;82.72
2178;BME280;1095;50.992;6.798;2023-10-08T01:21:44;101531.47;;;17.85;82.90
2178;BME280;1095;50.992;6.798;2023-10-08T01:24:12;101524.91;;;17.58;83.36
2178;BME280;1095;50.992;6.798;2023-10-08T01:26:45;101532.50;;;17.62;83.90
2178;BME280;1095;50.992;6.798;2023-10-08T01:29:12;101534.50;;;17.59;83.74
2178;BME280;1095;50.992;6.798;2023-10-08T01:31:51;101518.16;;;17.41;84.01
2178;BME280;1095;50.992;6.798;2023-10-08T01:34:35;101517.94;;;17.28;84.57
2178;BME280;1095;50.992;6.798;2023-10-08T01:37:05;101506.69;;;17.26;84.68
2178;BME280;1095;50.992;6.798;2023-10-08T01:39:48;101494.28;;;17.27;84.29
2178;BME280;1095;50.992;6.798;2023-10-08T01:42:22;101504.06;;;17.26;84.26
2178;BME280;1095;50.992;6.798;2023-10-08T01:45:05;101528.44;;;17.36;84.01
2178;BME280;1095;50.992;6.798;2023-10-08T01:47:35;101531.03;;;17.44;83.78
2178;BME280;1095;50.992;6.798;2023-10-08T01:50:02;101527.50;;;17.29;83.83
2178;BME280;1095;50.992;6.798;2023-10-08T01:52:37;101532.31;;;17.25;83.72
2178;BME280;1095;50.992;6.798;2023-10-08T01:55:07;101525.63;;;17.15;84.14
2178;BME280;1095;50.992;6.798;2023-10-08T01:57:39;101562.59;;;17.23;84.42
2178;BME280;1095;50.992;6.798;2023-10-08T02:00:07;101553.78;;;17.08;84.66
2178;BME280;1095;50.992;6.798;2023-10-08T02:02:35;101561.88;;;17.06;84.91
2178;BME280;1095;50.992;6.798;2023-10-08T02:05:02;101556.78;;;17.05;85.34
2178;BME280;1095;50.992;6.798;2023-10-08T02:07:32;101546.66;;;16.85;85.60
2178;BME280;1095;50.992;6.798;2023-10-08T02:09:59;101545.03;;;16.84;86.12
2178;BME280;1095;50.992;6.798;2023-10-08T02:12:28;101537.31;;;16.75;86.50
2178;BME280;1095;50.992;6.798;2023-10-08T02:14:58;101529.56;;;16.73;86.55
2178;BME280;1095;50.992;6.798;2023-10-08T02:17:28;101533.38;;;16.71;86.46
2178;BME280;1095;50.992;6.798;2023-10-08T02:19:55;101521.34;;;16.60;86.36
2178;BME280;1095;50.992;6.798;2023-10-08T02:22:24;101536.19;;;16.69;85.92
2178;BME280;1095;50.992;6.798;2023-10-08T02:24:51;101527.91;;;16.72;85.51
2178;BME280;1095;50.992;6.798;2023-10-08T02:27:18;101530.84;;;16.77;85.43
2178;BME280;1095;50.992;6.798;2023-10-08T02:29:46;101533.50;;;16.77;85.46
2178;BME280;1095;50.992;6.798;2023-10-08T02:32:13;101541.06;;;16.80;85.47
2178;BME280;1095;50.992;6.798;2023-10-08T02:34:40;101537.66;;;16.64;85.31
2178;BME280;1095;50.992;6.798;2023-10-08T02:37:10;101537.13;;;16.76;85.46
2178;BME280;1095;50.992;6.798;2023-10-08T02:39:38;101545.06;;;16.76;85.51
2178;BME280;1095;50.992;6.798;2023-10-08T02:42:06;101540.78;;;16.75;85.57
2178;BME280;1095;50.992;6.798;2023-10-08T02:44:38;101540.13;;;16.73;85.44
2178;BME280;1095;50.992;6.798;2023-10-08T02:47:09;101538.38;;;16.88;84.96
2178;BME280;1095;50.992;6.798;2023-10-08T02:49:38;101540.88;;;16.90;84.77
2178;BME280;1095;50.992;6.798;2023-10-08T02:52:07;101551.59;;;16.88;84.78
2178;BME280;1095;50.992;6.798;2023-10-08T02:54:38;101527.81;;;16.88;84.41
2178;BME280;1095;50.992;6.798;2023-10-08T02:57:04;101533.75;;;16.90;84.22
2178;BME280;1095;50.992;6.798;2023-10-08T02:59:36;101548.91;;;16.97;84.19
2178;BME280;1095;50.992;6.798;2023-10-08T03:02:06;101524.47;;;16.95;84.03
2178;BME280;1095;50.992;6.798;2023-10-08T03:04:40;101536.69;;;16.96;83.83
2178;BME280;1095;50.992;6.798;2023-10-08T03:07:07;101536.88;;;16.94;83.77
2178;BME280;1095;50.992;6.798;2023-10-08T03:09:43;101538.34;;;16.97;83.50
2178;BME280;1095;50.992;6.798;2023-10-08T03:12:10;101540.69;;;16.91;83.63
2178;BME280;1095;50.992;6.798;2023-10-08T03:14:39;101541.91;;;16.81;84.00
2178;BME280;1095;50.992;6.798;2023-10-08T03:17:20;101528.09;;;16.71;83.88
2178;BME280;1095;50.992;6.798;2023-10-08T03:19:49;101537.19;;;16.68;83.82
2178;BME280;1095;50.992;6.798;2023-10-08T04:30:44;101593.81;;;16.18;87.48
2178;BME280;1095;50.992;6.798;2023-10-08T04:36:45;101588.91;;;16.07;87.41
2178;BME280;1095;50.992;6.798;2023-10-08T04:40:10;101551.31;;;15.97;87.11
2178;BME280;1095;50.992;6.798;2023-10-08T04:44:02;101551.97;;;15.99;86.96
2178;BME280;1095;50.992;6.798;2023-10-08T04:46:34;101589.22;;;16.12;87.28
2178;BME280;1095;50.992;6.798;2023-10-08T04:56:07;101592.91;;;15.87;87.79
2178;BME280;1095;50.992;6.798;2023-10-08T05:01:42;101631.66;;;16.03;88.17
2178;BME280;1095;50.992;6.798;2023-10-08T05:02:12;101600.84;;;15.71;88.92
2178;BME280;1095;50.992;6.798;2023-10-08T05:05:12;101594.41;;;15.65;89.23
2178;BME280;1095;50.992;6.798;2023-10-08T05:08:21;101604.63;;;15.84;88.99
2178;BME280;1095;50.992;6.798;2023-10-08T05:11:18;101588.44;;;15.87;88.74
2178;BME280;1095;50.992;6.798;2023-10-08T05:14:40;101577.41;;;15.68;88.59
2178;BME280;1095;50.992;6.798;2023-10-08T05:24:45;101582.53;;;15.61;88.89
2178;BME280;1095;50.992;6.798;2023-10-08T09:42:25;101790.66;;;19.37;82.60
2178;BME280;1095;50.992;6.798;2023-10-08T09:44:52;101799.63;;;19.36;82.93
2178;BME280;1095;50.992;6.798;2023-10-08T09:47:21;101797.94;;;19.50;82.49
2178;BME280;1095;50.992;6.798;2023-10-08T09:49:57;101799.03;;;19.41;81.95
2178;BME280;1095;50.992;6.798;2023-10-08T09:52:36;101791.16;;;19.47;82.01
2178;BME280;1095;50.992;6.798;2023-10-08T09:55:08;101796.03;;;19.59;81.87
2178;BME280;1095;50.992;6.798;2023-10-08T09:57:37;101797.59;;;19.53;82.12
2178;BME280;1095;50.992;6.798;2023-10-08T10:00:06;101798.78;;;19.86;82.02
2178;BME280;1095;50.992;6.798;2023-10-08T10:02:36;101797.56;;;19.68;81.68
2178;BME280;1095;50.992;6.798;2023-10-08T10:05:03;101792.63;;;19.50;81.75
2178;BME280;1095;50.992;6.798;2023-10-08T10:07:34;101797.34;;;19.18;82.26
2178;BME280;1095;50.992;6.798;2023-10-08T10:10:01;101806.03;;;19.27;82.83
2178;BME280;1095;50.992;6.798;2023-10-08T10:12:37;101815.34;;;19.52;82.65
2178;BME280;1095;50.992;6.798;2023-10-08T10:15:06;101814.41;;;19.75;82.00
2178;BME280;1095;50.992;6.798;2023-10-08T10:17:36;101817.53;;;19.64;82.58
2178;BME280;1095;50.992;6.798;2023-10-08T10:20:04;101805.28;;;19.63;81.97
2178;BME280;1095;50.992;6.798;2023-10-08T10:22:36;101793.69;;;19.34;82.40
2178;BME280;1095;50.992;6.798;2023-10-08T10:25:03;101787.50;;;19.48;81.91
2178;BME280;1095;50.992;6.798;2023-10-08T10:27:41;101801.06;;;19.53;82.53
2178;BME280;1095;50.992;6.798;2023-10-08T10:30:11;101799.63;;;19.36;82.65
2178;BME280;1095;50.992;6.798;2023-10-08T10:32:44;101794.16;;;19.23;82.97
2178;BME280;1095;50.992;6.798;2023-10-08T10:35:15;101802.28;;;19.21;83.45
2178;BME280;1095;50.992;6.798;2023-10-08T10:37:43;101798.53;;;19.16;83.32
2178;BME280;1095;50.992;6.798;2023-10-08T10:40:19;101806.41;;;19.24;83.38
2178;BME280;1095;50.992;6.798;2023-10-08T10:42:57;101810.31;;;19.43;83.63
2178;BME280;1095;50.992;6.798;2023-10-08T10:45:28;101808.78;;;19.19;83.84
2178;BME280;1095;50.992;6.798;2023-10-08T10:48:10;101805.66;;;19.30;83.49
2178;BME280;1095;50.992;6.798;2023-10-08T10:50:41;101780.66;;;19.54;82.83
2178;BME280;1095;50.992;6.798;2023-10-08T10:53:36;101800.56;;;19.79;82.29
2178;BME280;1095;50.992;6.798;2023-10-08T10:56:19;101774.44;;;19.83;81.76
2178;BME280;1095;50.992;6.798;2023-10-08T10:59:02;101767.22;;;19.98;81.80
2178;BME280;1095;50.992;6.798;2023-10-08T11:01:41;101785.69;;;20.06;81.62
2178;BME280;1095;50.992;6.798;2023-10-08T11:04:17;101792.72;;;20.14;82.13
2178;BME280;1095;50.992;6.798;2023-10-08T11:06:48;101782.88;;;20.36;80.96
2178;BME280;1095;50.992;6.798;2023-10-08T13:43:33;101694.22;;;20.78;84.92
2178;BME280;1095;50.992;6.798;2023-10-08T13:46:18;101689.19;;;21.03;84.10
2178;BME280;1095;50.992;6.798;2023-10-08T13:48:57;101668.44;;;20.78;84.36
2178;BME280;1095;50.992;6.798;2023-10-08T13:51:34;101666.78;;;20.77;84.23
2178;BME280;1095;50.992;6.798;2023-10-08T13:54:06;101670.13;;;20.99;83.48
2178;BME280;1095;50.992;6.798;2023-10-08T13:56:39;101659.03;;;20.89;83.44
2178;BME280;1095;50.992;6.798;2023-10-08T13:59:14;101663.59;;;21.02;83.25
2178;BME280;1095;50.992;6.798;2023-10-08T14:01:43;101663.66;;;21.15;83.16
2178;BME280;1095;50.992;6.798;2023-10-08T14:04:12;101653.78;;;21.02;83.10
2178;BME280;1095;50.992;6.798;2023-10-08T14:06:42;101649.41;;;20.88;83.58
2178;BME280;1095;50.992;6.798;2023-10-08T14:09:13;101650.53;;;21.07;83.61
2178;BME280;1095;50.992;6.798;2023-10-08T14:11:46;101647.16;;;20.85;84.12
2178;BME280;1095;50.992;6.798;2023-10-08T14:14:14;101637.00;;;21.02;83.27
2178;BME280;1095;50.992;6.798;2023-10-08T14:16:43;101647.09;;;20.65;84.37
2178;BME280;1095;50.992;6.798;2023-10-08T14:19:13;101651.13;;;20.54;84.62
2178;BME280;1095;50.992;6.798;2023-10-08T14:21:41;101647.31;;;20.36;85.79
2178;BME280;1095;50.992;6.798;2023-10-08T14:24:15;101645.25;;;20.31;85.94
2178;BME280;1095;50.992;6.798;2023-10-08T14:26:42;101655.84;;;20.25;86.59
2178;BME280;1095;50.992;6.798;2023-10-08T14:29:09;101652.16;;;20.26;86.58
2178;BME280;1095;50.992;6.798;2023-10-08T14:31:41;101643.47;;;20.10;86.93
2178;BME280;1095;50.992;6.798;2023-10-08T14:34:13;101645.25;;;20.31;86.38
2178;BME280;1095;50.992;6.798;2023-10-08T14:36:54;101647.38;;;20.42;86.91
2178;BME280;1095;50.992;6.798;2023-10-08T14:39:38;101637.69;;;20.35;86.55
2178;BME280;1095;50.992;6.798;2023-10-08T14:42:22;101627.97;;;20.14;86.88
2178;BME280;1095;50.992;6.798;2023-10-08T14:45:06;101626.56;;;20.18;86.85
2178;BME280;1095;50.992;6.798;2023-10-08T14:47:37;101626.41;;;19.98;87.86
2178;BME280;1095;50.992;6.798;2023-10-08T14:50:05;101617.75;;;19.83;88.36
2178;BME280;1095;50.992;6.798;2023-10-08T14:52:41;101626.28;;;19.78;88.93
2178;BME280;1095;50.992;6.798;2023-10-08T14:55:08;101642.16;;;19.72;89.19
2178;BME280;1095;50.992;6.798;2023-10-08T14:57:35;101632.66;;;19.84;89.21
2178;BME280;1095;50.992;6.798;2023-10-08T15:00:02;101636.75;;;19.86;88.93
2178;BME280;1095;50.992;6.798;2023-10-08T15:02:30;101630.41;;;19.81;88.68
2178;BME280;1095;50.992;6.798;2023-10-08T15:04:59;101627.34;;;19.84;88.30
2178;BME280;1095;50.992;6.798;2023-10-08T15:07:26;101624.72;;;19.91;88.09
2178;BME280;1095;50.992;6.798;2023-10-08T15:09:53;101625.59;;;19.98;88.15
2178;BME280;1095;50.992;6.798;2023-10-08T15:12:22;101624.38;;;20.00;87.65
2178;BME280;1095;50.992;6.798;2023-10-08T15:14:50;101634.53;;;19.90;88.08
2178;BME280;1095;50.992;6.798;2023-10-08T15:17:17;101642.25;;;19.85;88.74
2178;BME280;1095;50.992;6.798;2023-10-08T15:19:44;101621.25;;;19.90;88.23
2178;BME280;1095;50.992;6.798;2023-10-08T15:22:13;101640.72;;;19.97;88.45
2178;BME280;1095;50.992;6.798;2023-10-08T15:24:40;101641.03;;;19.87;88.76
2178;BME280;1095;50.992;6.798;2023-10-08T15:27:08;101654.69;;;19.78;89.34
2178;BME280;1095;50.992;6.798;2023-10-08T15:29:36;101652.66;;;19.80;89.18
2178;BME280;1095;50.992;6.798;2023-10-08T15:32:02;101638.25;;;19.68;89.42
2178;BME280;1095;50.992;6.798;2023-10-08T15:34:30;101647.34;;;19.59;89.88
2178;BME280;1095;50.992;6.798;2023-10-08T15:36:57;101655.38;;;19.65;90.22
2178;BME280;1095;50.992;6.798;2023-10-08T15:39:25;101656.19;;;19.66;89.92
2178;BME280;1095;50.992;6.798;2023-10-08T15:41:53;101640.59;;;19.56;89.89
2178;BME280;1095;50.992;6.798;2023-10-08T15:44:20;101645.97;;;19.63;89.92
2178;BME280;1095;50.992;6.798;2023-10-08T15:46:50;101636.53;;;19.60;90.06
2178;BME280;1095;50.992;6.798;2023-10-08T15:49:17;101635.53;;;19.61;90.23
2178;BME280;1095;50.992;6.798;2023-10-08T15:51:45;101628.06;;;19.71;90.12
2178;BME280;1095;50.992;6.798;2023-10-08T15:54:12;101624.84;;;19.76;89.93
2178;BME280;1095;50.992;6.798;2023-10-08T15:56:40;101623.28;;;19.88;89.38
2178;BME280;1095;50.992;6.798;2023-10-08T15:59:06;101620.66;;;19.67;90.12
2178;BME280;1095;50.992;6.798;2023-10-08T16:01:33;101622.94;;;19.70;90.42
2178;BME280;1095;50.992;6.798;2023-10-08T16:03:59;101614.78;;;19.71;90.21
2178;BME280;1095;50.992;6.798;2023-10-08T16:06:26;101624.09;;;19.61;90.30
2178;BME280;1095;50.992;6.798;2023-10-08T16:08:52;101621.94;;;19.71;90.13
2178;BME280;1095;50.992;6.798;2023-10-08T16:11:19;101611.44;;;19.63;90.35
2178;BME280;1095;50.992;6.798;2023-10-08T16:13:47;101618.16;;;19.59;90.64
2178;BME280;1095;50.992;6.798;2023-10-08T16:16:14;101619.63;;;19.46;91.42
2178;BME280;1095;50.992;6.798;2023-10-08T16:18:40;101616.06;;;19.33;91.37
2178;BME280;1095;50.992;6.798;2023-10-08T16:21:07;101618.72;;;19.33;91.90
2178;BME280;1095;50.992;6.798;2023-10-08T16:23:36;101623.63;;;19.36;92.13
2178;BME280;1095;50.992;6.798;2023-10-08T16:26:03;101620.16;;;19.35;91.99
2178;BME280;1095;50.992;6.798;2023-10-08T16:28:31;101626.03;;;19.31;92.58
2178;BME280;1095;50.992;6.798;2023-10-08T16:30:59;101622.69;;;19.22;92.95
2178;BME280;1095;50.992;6.798;2023-10-08T16:33:25;101617.75;;;19.19;93.01
2178;BME280;1095;50.992;6.798;2023-10-08T16:35:55;101616.47;;;19.15;93.16
2178;BME280;1095;50.992;6.798;2023-10-08T16:38:21;101619.69;;;19.10;93.58
2178;BME280;1095;50.992;6.798;2023-10-08T16:40:48;101626.56;;;19.05;94.08
2178;BME280;1095;50.992;6.798;2023-10-08T16:43:15;101626.88;;;18.95;94.40
2178;BME280;1095;50.992;6.798;2023-10-08T16:45:42;101621.50;;;18.88;95.02
2178;BME280;1095;50.992;6.798;2023-10-08T16:48:10;101616.50;;;18.79;95.73
2178;BME280;1095;50.992;6.798;2023-10-08T16:50:37;101628.03;;;18.71;96.41
2178;BME280;1095;50.992;6.798;2023-10-08T16:53:04;101626.75;;;18.67;96.66
2178;BME280;1095;50.992;6.798;2023-10-08T16:55:31;101623.63;;;18.64;96.94
2178;BME280;1095;50.992;6.798;2023-10-08T16:57:58;101617.97;;;18.67;96.82
2178;BME280;1095;50.992;6.798;2023-10-08T17:00:25;101615.22;;;18.60;97.32
2178;BME280;1095;50.992;6.798;2023-10-08T17:02:54;101621.88;;;18.56;97.66
2178;BME280;1095;50.992;6.798;2023-10-08T17:05:22;101624.91;;;18.53;97.96
2178;BME280;1095;50.992;6.798;2023-10-08T17:07:49;101622.78;;;18.48;98.34
2178;BME280;1095;50.992;6.798;2023-10-08T17:10:17;101628.63;;;18.44;98.76
2178;BME280;1095;50.992;6.798;2023-10-08T17:12:44;101635.53;;;18.38;99.40
2178;BME280;1095;50.992;6.798;2023-10-08T17:15:11;101635.25;;;18.33;99.74
2178;BME280;1095;50.992;6.798;2023-10-08T17:17:38;101636.97;;;18.26;100.00
2178;BME280;1095;50.992;6.798;2023-10-08T17:20:05;101622.97;;;18.17;100.00
2178;BME280;1095;50.992;6.798;2023-10-08T17:22:36;101629.00;;;18.11;100.00
2178;BME280;1095;50.992;6.798;2023-10-08T17:25:03;101629.38;;;18.08;100.00
2178;BME280;1095;50.992;6.798;2023-10-08T17:27:31;101630.91;;;18.03;100.00
2178;BME280;1095;50.992;6.798;2023-10-08T17:29:59;101632.25;;;17.99;100.00
2178;BME280;1095;50.992;6.798;2023-10-08T17:32:26;101621.97;;;17.89;100.00
2178;BME280;1095;50.992;6.798;2023-10-08T17:34:52;101619.09;;;17.76;100.00
2178;BME280;1095;50.992;6.798;2023-10-08T17:37:19;101615.63;;;17.75;100.00
2178;BME280;1095;50.992;6.798;2023-10-08T17:39:50;101602.28;;;17.69;100.00
2178;BME280;1095;50.992;6.798;2023-10-08T17:42:17;101613.69;;;17.69;100.00
2178;BME280;1095;50.992;6.798;2023-10-08T17:44:44;101613.88;;;17.59;100.00
2178;BME280;1095;50.992;6.798;2023-10-08T17:47:11;101618.38;;;17.59;100.00
2178;BME280;1095;50.992;6.798;2023-10-08T17:49:39;101614.78;;;17.52;100.00
2178;BME280;1095;50.992;6.798;2023-10-08T17:52:06;101609.75;;;17.42;100.00
2178;BME280;1095;50.992;6.798;2023-10-08T17:54:36;101610.28;;;17.38;100.00
2178;BME280;1095;50.992;6.798;2023-10-08T17:57:09;101602.88;;;17.33;100.00
2178;BME280;1095;50.992;6.798;2023-10-08T17:59:38;101609.50;;;17.29;100.00
2178;BME280;1095;50.992;6.798;2023-10-08T18:02:05;101600.63;;;17.22;100.00
2178;BME280;1095;50.992;6.798;2023-10-08T18:04:32;101598.84;;;17.14;100.00
2178;BME280;1095;50.992;6.798;2023-10-08T18:06:59;101599.38;;;17.10;100.00
2178;BME280;1095;50.992;6.798;2023-10-08T18:09:26;101596.25;;;17.06;100.00
2178;BME280;1095;50.992;6.798;2023-10-08T18:11:55;101594.84;;;16.96;100.00
2178;BME280;1095;50.992;6.798;2023-10-08T18:14:24;101594.56;;;16.90;100.00
2178;BME280;1095;50.992;6.798;2023-10-08T18:16:52;101604.81;;;16.85;100.00
2178;BME280;1095;50.992;6.798;2023-10-08T18:19:21;101601.88;;;16.80;100.00
2178;BME280;1095;50.992;6.798;2023-10-08T18:21:49;101599.22;;;16.80;100.00
2178;BME280;1095;50.992;6.798;2023-10-08T18:24:16;101594.97;;;16.71;100.00
2178;BME280;1095;50.992;6.798;2023-10-08T18:26:43;101592.84;;;16.67;100.00
2178;BME280;1095;50.992;6.798;2023-10-08T18:29:16;101597.47;;;16.65;100.00
2178;BME280;1095;50.992;6.798;2023-10-08T18:31:45;101599.94;;;16.58;100.00
2178;BME280;1095;50.992;6.798;2023-10-08T18:34:12;101603.47;;;16.50;100.00
2178;BME280;1095;50.992;6.798;2023-10-08T18:36:42;101597.03;;;16.53;100.00
2178;BME280;1095;50.992;6.798;2023-10-08T18:39:09;101602.81;;;16.48;100.00
2178;BME280;1095;50.992;6.798;2023-10-08T18:41:39;101598.38;;;16.49;100.00
2178;BME280;1095;50.992;6.798;2023-10-08T18:44:06;101585.84;;;16.43;100.00
2178;BME280;1095;50.992;6.798;2023-10-08T18:46:34;101596.41;;;16.43;100.00
2178;BME280;1095;50.992;6.798;2023-10-08T18:49:03;101592.78;;;16.36;100.00
2178;BME280;1095;50.992;6.798;2023-10-08T18:51:31;101595.13;;;16.31;100.00
2178;BME280;1095;50.992;6.798;2023-10-08T18:53:58;101592.31;;;16.24;100.00
2178;BME280;1095;50.992;6.798;2023-10-08T18:56:25;101595.16;;;16.14;100.00
2178;BME280;1095;50.992;6.798;2023-10-08T18:58:54;101588.19;;;16.30;100.00
2178;BME280;1095;50.992;6.798;2023-10-08T19:01:21;101570.38;;;16.23;100.00
2178;BME280;1095;50.992;6.798;2023-10-08T19:03:51;101574.69;;;16.16;100.00
2178;BME280;1095;50.992;6.798;2023-10-08T19:06:20;101580.13;;;16.15;100.00
2178;BME280;1095;50.992;6.798;2023-10-08T19:08:49;101582.44;;;16.10;100.00
2178;BME280;1095;50.992;6.798;2023-10-08T19:11:15;101586.25;;;16.07;100.00
2178;BME280;1095;50.992;6.798;2023-10-08T19:13:43;101569.78;;;16.05;100.00
2178;BME280;1095;50.992;6.798;2023-10-08T19:16:11;101577.53;;;16.07;100.00
2178;BME280;1095;50.992;6.798;2023-10-08T19:18:40;101572.59;;;16.04;100.00
2178;BME280;1095;50.992;6.798;2023-10-08T19:21:15;101571.44;;;16.06;100.00
2178;BME280;1095;50.992;6.798;2023-10-08T19:23:44;101571.22;;;16.08;100.00
2178;BME280;1095;50.992;6.798;2023-10-08T19:26:11;101561.22;;;16.03;100.00
2178;BME280;1095;50.992;6.798;2023-10-08T19:28:43;101569.47;;;16.00;100.00
2178;BME280;1095;50.992;6.798;2023-10-08T19:31:13;101571.44;;;15.98;100.00
2178;BME280;1095;50.992;6.798;2023-10-08T19:33:40;101552.81;;;15.91;100.00
2178;BME280;1095;50.992;6.798;2023-10-08T19:36:07;101567.31;;;15.96;100.00
2178;BME280;1095;50.992;6.798;2023-10-08T19:38:35;101567.81;;;15.91;100.00
2178;BME280;1095;50.992;6.798;2023-10-08T19:41:03;101549.84;;;15.86;100.00
2178;BME280;1095;50.992;6.798;2023-10-08T19:43:29;101563.22;;;15.85;100.00
2178;BME280;1095;50.992;6.798;2023-10-08T19:45:56;101548.38;;;15.84;100.00
2178;BME280;1095;50.992;6.798;2023-10-08T19:48:23;101557.13;;;15.76;100.00
2178;BME280;1095;50.992;6.798;2023-10-08T19:50:50;101546.41;;;15.86;100.00
2178;BME280;1095;50.992;6.798;2023-10-08T19:53:19;101555.97;;;15.87;100.00
2178;BME280;1095;50.992;6.798;2023-10-08T19:55:47;101543.44;;;15.81;100.00
2178;BME280;1095;50.992;6.798;2023-10-08T20:01:08;101553.50;;;15.61;100.00
2178;BME280;1095;50.992;6.798;2023-10-08T20:03:41;101538.16;;;15.40;100.00
2178;BME280;1095;50.992;6.798;2023-10-08T20:09:08;101537.50;;;15.38;100.00
2178;BME280;1095;50.992;6.798;2023-10-08T20:11:35;101544.59;;;15.38;100.00
2178;BME280;1095;50.992;6.798;2023-10-08T20:14:03;101545.09;;;15.41;100.00
2178;BME280;1095;50.992;6.798;2023-10-08T20:16:37;101538.50;;;15.37;100.00
2178;BME280;1095;50.992;6.798;2023-10-08T20:19:04;101542.47;;;15.33;100.00
2178;BME280;1095;50.992;6.798;2023-10-08T20:21:31;101555.97;;;15.38;100.00
2178;BME280;1095;50.992;6.798;2023-10-08T20:23:58;101542.47;;;15.33;100.00
2178;BME280;1095;50.992;6.798;2023-10-08T20:26:27;101551.03;;;15.35;100.00
2178;BME280;1095;50.992;6.798;2023-10-08T20:29:02;101537.66;;;15.20;100.00
2178;BME280;1095;50.992;6.798;2023-10-08T20:31:32;101536.19;;;15.10;100.00
2178;BME280;1095;50.992;6.798;2023-10-08T20:34:03;101539.81;;;15.09;100.00
2178;BME280;1095;50.992;6.798;2023-10-08T20:36:32;101545.56;;;15.12;100.00
2178;BME280;1095;50.992;6.798;2023-10-08T20:39:02;101546.25;;;15.06;100.00
2178;BME280;1095;50.992;6.798;2023-10-08T20:41:29;101542.75;;;15.14;100.00
2178;BME280;1095;50.992;6.798;2023-10-08T20:43:57;101548.84;;;15.14;100.00
2178;BME280;1095;50.992;6.798;2023-10-08T20:46:24;101554.28;;;15.13;100.00
2178;BME280;1095;50.992;6.798;2023-10-08T20:48:51;101544.09;;;15.10;100.00
2178;BME280;1095;50.992;6.798;2023-10-08T20:51:20;101544.28;;;15.08;100.00
2178;BME280;1095;50.992;6.798;2023-10-08T20:53:49;101539.47;;;15.04;100.00
2178;BME280;1095;50.992;6.798;2023-10-08T20:56:17;101547.72;;;15.01;100.00
2178;BME280;1095;50.992;6.798;2023-10-08T20:58:44;101549.69;;;14.99;100.00
2178;BME280;1095;50.992;6.798;2023-10-08T21:01:11;101546.72;;;14.93;100.00
2178;BME280;1095;50.992;6.798;2023-10-08T21:03:42;101544.38;;;14.82;100.00
2178;BME280;1095;50.992;6.798;2023-10-08T21:06:09;101540.75;;;14.83;100.00
2178;BME280;1095;50.992;6.798;2023-10-08T21:08:37;101543.06;;;14.86;100.00
2178;BME280;1095;50.992;6.798;2023-10-08T21:11:04;101548.50;;;14.85;100.00
2178;BME280;1095;50.992;6.798;2023-10-08T21:13:33;101551.63;;;14.80;100.00
2178;BME280;1095;50.992;6.798;2023-10-08T21:16:00;101557.56;;;14.82;100.00
2178;BME280;1095;50.992;6.798;2023-10-08T21:18:27;101554.28;;;14.88;100.00
2178;BME280;1095;50.992;6.798;2023-10-08T21:20:53;101558.06;;;14.94;100.00
2178;BME280;1095;50.992;6.798;2023-10-08T21:23:21;101552.63;;;14.87;100.00
2178;BME280;1095;50.992;6.798;2023-10-08T21:25:51;101555.59;;;14.84;100.00
2178;BME280;1095;50.992;6.798;2023-10-08T21:28:17;101544.38;;;14.82;100.00
2178;BME280;1095;50.992;6.798;2023-10-08T21:30:44;101547.84;;;14.83;100.00
2178;BME280;1095;50.992;6.798;2023-10-08T21:33:11;101547.38;;;14.96;100.00
2178;BME280;1095;50.992;6.798;2023-10-08T21:35:38;101534.69;;;14.99;100.00
2178;BME280;1095;50.992;6.798;2023-10-08T21:38:04;101534.38;;;15.02;100.00
2178;BME280;1095;50.992;6.798;2023-10-08T21:40:31;101535.88;;;15.05;100.00
2178;BME280;1095;50.992;6.798;2023-10-08T21:42:59;101532.72;;;15.01;100.00
2178;BME280;1095;50.992;6.798;2023-10-08T21:45:25;101534.38;;;15.10;100.00
2178;BME280;1095;50.992;6.798;2023-10-08T21:47:52;101539.81;;;15.09;100.00
2178;BME280;1095;50.992;6.798;2023-10-08T21:50:20;101534.53;;;15.17;100.00